sensor_id;sensor_type;location;lat;lon;timestamp;temperature;humidity
65324;SHT31;51937;48.364;11.378;2022-09-29T00:01:22;12.87;61.51
65324;SHT31;51937;48.364;11.378;2022-09-29T00:03:47;12.90;61.50
65324;SHT31;51937;48.364;11.378;2022-09-29T00:06:16;12.89;61.57
65324;SHT31;51937;48.364;11.378;2022-09-29T00:08:42;12.91;61.57
65324;SHT31;51937;48.364;11.378;2022-09-29T00:11:08;12.86;61.62
65324;SHT31;51937;48.364;11.378;2022-09-29T00:13:34;12.83;61.71
65324;SHT31;51937;48.364;11.378;2022-09-29T00:16:00;12.77;61.77
65324;SHT31;51937;48.364;11.378;2022-09-29T00:18:27;12.77;61.81
65324;SHT31;51937;48.364;11.378;2022-09-29T00:21:39;12.76;61.77
65324;SHT31;51937;48.364;11.378;2022-09-29T00:23:46;12.75;61.72
65324;SHT31;51937;48.364;11.378;2022-09-29T00:26:17;12.72;61.71
65324;SHT31;51937;48.364;11.378;2022-09-29T00:29:01;12.70;61.77
65324;SHT31;51937;48.364;11.378;2022-09-29T00:31:29;12.72;61.68
65324;SHT31;51937;48.364;11.378;2022-09-29T00:33:56;12.72;61.66
65324;SHT31;51937;48.364;11.378;2022-09-29T00:36:22;12.70;61.70
65324;SHT31;51937;48.364;11.378;2022-09-29T00:38:49;12.67;61.66
65324;SHT31;51937;48.364;11.378;2022-09-29T00:41:22;12.70;61.62
65324;SHT31;51937;48.364;11.378;2022-09-29T00:44:01;12.69;61.60
65324;SHT31;51937;48.364;11.378;2022-09-29T00:48:58;12.67;61.69
65324;SHT31;51937;48.364;11.378;2022-09-29T00:51:25;12.66;61.68
65324;SHT31;51937;48.364;11.378;2022-09-29T00:53:52;12.63;61.70
65324;SHT31;51937;48.364;11.378;2022-09-29T00:56:18;12.60;61.66
65324;SHT31;51937;48.364;11.378;2022-09-29T00:58:57;12.59;61.74
65324;SHT31;51937;48.364;11.378;2022-09-29T01:01:25;12.56;61.73
65324;SHT31;51937;48.364;11.378;2022-09-29T01:03:56;12.55;61.72
65324;SHT31;51937;48.364;11.378;2022-09-29T01:06:30;12.53;61.77
65324;SHT31;51937;48.364;11.378;2022-09-29T01:09:07;12.50;61.74
65324;SHT31;51937;48.364;11.378;2022-09-29T01:11:34;12.50;61.74
65324;SHT31;51937;48.364;11.378;2022-09-29T01:14:02;12.49;61.71
65324;SHT31;51937;48.364;11.378;2022-09-29T01:16:33;12.50;61.73
65324;SHT31;51937;48.364;11.378;2022-09-29T01:18:59;12.48;61.76
65324;SHT31;51937;48.364;11.378;2022-09-29T01:24:27;12.46;61.77
65324;SHT31;51937;48.364;11.378;2022-09-29T01:32:16;12.43;61.90
65324;SHT31;51937;48.364;11.378;2022-09-29T01:35:02;12.43;61.92
65324;SHT31;51937;48.364;11.378;2022-09-29T01:37:34;12.46;61.95
65324;SHT31;51937;48.364;11.378;2022-09-29T01:40:08;12.45;61.91
65324;SHT31;51937;48.364;11.378;2022-09-29T01:42:41;12.48;61.94
65324;SHT31;51937;48.364;11.378;2022-09-29T01:47:39;12.49;61.97
65324;SHT31;51937;48.364;11.378;2022-09-29T01:50:37;12.48;62.01
65324;SHT31;51937;48.364;11.378;2022-09-29T01:53:08;12.53;61.90
65324;SHT31;51937;48.364;11.378;2022-09-29T01:55:37;12.53;61.87
65324;SHT31;51937;48.364;11.378;2022-09-29T01:58:09;12.55;61.87
65324;SHT31;51937;48.364;11.378;2022-09-29T02:00:40;12.53;61.81
65324;SHT31;51937;48.364;11.378;2022-09-29T02:05:50;12.55;61.87
65324;SHT31;51937;48.364;11.378;2022-09-29T02:08:24;12.50;61.86
65324;SHT31;51937;48.364;11.378;2022-09-29T02:11:11;12.48;61.93
65324;SHT31;51937;48.364;11.378;2022-09-29T02:13:40;12.45;61.95
65324;SHT31;51937;48.364;11.378;2022-09-29T02:16:10;12.46;61.79
65324;SHT31;51937;48.364;11.378;2022-09-29T02:21:16;12.45;61.91
65324;SHT31;51937;48.364;11.378;2022-09-29T02:23:42;12.45;61.98
65324;SHT31;51937;48.364;11.378;2022-09-29T02:26:08;12.43;62.01
65324;SHT31;51937;48.364;11.378;2022-09-29T02:28:34;12.42;62.03
65324;SHT31;51937;48.364;11.378;2022-09-29T02:31:00;12.43;62.03
65324;SHT31;51937;48.364;11.378;2022-09-29T02:33:26;12.43;62.10
65324;SHT31;51937;48.364;11.378;2022-09-29T02:36:23;12.39;62.20
65324;SHT31;51937;48.364;11.378;2022-09-29T02:41:48;12.42;62.13
65324;SHT31;51937;48.364;11.378;2022-09-29T02:47:21;12.36;62.26
65324;SHT31;51937;48.364;11.378;2022-09-29T02:55:18;12.39;62.15
65324;SHT31;51937;48.364;11.378;2022-09-29T02:57:51;12.41;62.19
65324;SHT31;51937;48.364;11.378;2022-09-29T03:00:18;12.39;62.18
65324;SHT31;51937;48.364;11.378;2022-09-29T03:02:44;12.41;62.20
65324;SHT31;51937;48.364;11.378;2022-09-29T03:05:14;12.38;62.24
65324;SHT31;51937;48.364;11.378;2022-09-29T03:07:41;12.39;62.16
65324;SHT31;51937;48.364;11.378;2022-09-29T03:10:08;12.41;62.14
65324;SHT31;51937;48.364;11.378;2022-09-29T03:12:34;12.42;62.12
65324;SHT31;51937;48.364;11.378;2022-09-29T03:15:00;12.42;62.13
65324;SHT31;51937;48.364;11.378;2022-09-29T03:17:25;12.39;62.12
65324;SHT31;51937;48.364;11.378;2022-09-29T03:19:51;12.36;62.11
65324;SHT31;51937;48.364;11.378;2022-09-29T03:22:16;12.34;62.26
65324;SHT31;51937;48.364;11.378;2022-09-29T03:24:42;12.26;62.28
65324;SHT31;51937;48.364;11.378;2022-09-29T03:27:08;12.21;62.38
65324;SHT31;51937;48.364;11.378;2022-09-29T03:29:34;12.17;62.40
65324;SHT31;51937;48.364;11.378;2022-09-29T03:32:00;12.15;62.37
65324;SHT31;51937;48.364;11.378;2022-09-29T03:34:25;12.13;62.33
65324;SHT31;51937;48.364;11.378;2022-09-29T03:36:50;12.15;62.27
65324;SHT31;51937;48.364;11.378;2022-09-29T03:39:16;12.17;62.23
65324;SHT31;51937;48.364;11.378;2022-09-29T03:41:41;12.15;62.20
65324;SHT31;51937;48.364;11.378;2022-09-29T03:44:06;12.17;62.24
65324;SHT31;51937;48.364;11.378;2022-09-29T03:46:31;12.18;62.22
65324;SHT31;51937;48.364;11.378;2022-09-29T03:48:57;12.17;62.20
65324;SHT31;51937;48.364;11.378;2022-09-29T03:51:22;12.17;62.21
65324;SHT31;51937;48.364;11.378;2022-09-29T03:53:47;12.17;62.23
65324;SHT31;51937;48.364;11.378;2022-09-29T03:56:13;12.15;62.27
65324;SHT31;51937;48.364;11.378;2022-09-29T03:58:39;12.17;62.26
65324;SHT31;51937;48.364;11.378;2022-09-29T04:01:04;12.18;62.34
65324;SHT31;51937;48.364;11.378;2022-09-29T04:03:29;12.17;62.33
65324;SHT31;51937;48.364;11.378;2022-09-29T04:05:55;12.15;62.34
65324;SHT31;51937;48.364;11.378;2022-09-29T04:08:20;12.15;62.40
65324;SHT31;51937;48.364;11.378;2022-09-29T04:10:46;12.14;62.50
65324;SHT31;51937;48.364;11.378;2022-09-29T04:13:12;12.08;62.52
65324;SHT31;51937;48.364;11.378;2022-09-29T04:15:37;12.07;62.49
65324;SHT31;51937;48.364;11.378;2022-09-29T04:18:03;12.05;62.49
65324;SHT31;51937;48.364;11.378;2022-09-29T04:20:28;12.04;62.49
65324;SHT31;51937;48.364;11.378;2022-09-29T04:22:53;12.01;62.46
65324;SHT31;51937;48.364;11.378;2022-09-29T04:25:19;12.01;62.41
65324;SHT31;51937;48.364;11.378;2022-09-29T04:27:44;12.00;62.37
65324;SHT31;51937;48.364;11.378;2022-09-29T04:30:10;12.02;62.35
65324;SHT31;51937;48.364;11.378;2022-09-29T04:32:36;12.00;62.36
65324;SHT31;51937;48.364;11.378;2022-09-29T04:35:01;12.00;62.33
65324;SHT31;51937;48.364;11.378;2022-09-29T04:37:27;12.01;62.30
65324;SHT31;51937;48.364;11.378;2022-09-29T04:39:52;12.01;62.32
65324;SHT31;51937;48.364;11.378;2022-09-29T04:42:19;12.04;62.33
65324;SHT31;51937;48.364;11.378;2022-09-29T04:44:45;12.05;62.30
65324;SHT31;51937;48.364;11.378;2022-09-29T04:47:10;12.08;62.28
65324;SHT31;51937;48.364;11.378;2022-09-29T04:49:36;12.11;62.25
65324;SHT31;51937;48.364;11.378;2022-09-29T04:52:02;12.11;62.22
65324;SHT31;51937;48.364;11.378;2022-09-29T04:54:31;12.11;62.26
65324;SHT31;51937;48.364;11.378;2022-09-29T04:56:57;12.11;62.30
65324;SHT31;51937;48.364;11.378;2022-09-29T04:59:23;12.13;62.31
65324;SHT31;51937;48.364;11.378;2022-09-29T05:01:48;12.14;62.27
65324;SHT31;51937;48.364;11.378;2022-09-29T05:04:13;12.15;62.28
65324;SHT31;51937;48.364;11.378;2022-09-29T05:06:39;12.14;62.39
65324;SHT31;51937;48.364;11.378;2022-09-29T05:09:05;12.14;62.48
65324;SHT31;51937;48.364;11.378;2022-09-29T05:11:30;12.15;62.47
65324;SHT31;51937;48.364;11.378;2022-09-29T05:13:56;12.14;62.46
65324;SHT31;51937;48.364;11.378;2022-09-29T05:16:21;12.18;62.50
65324;SHT31;51937;48.364;11.378;2022-09-29T05:18:47;12.20;62.55
65324;SHT31;51937;48.364;11.378;2022-09-29T05:21:12;12.15;62.65
65324;SHT31;51937;48.364;11.378;2022-09-29T05:23:38;12.14;62.77
65324;SHT31;51937;48.364;11.378;2022-09-29T05:26:05;12.11;62.81
65324;SHT31;51937;48.364;11.378;2022-09-29T05:28:31;12.07;62.87
65324;SHT31;51937;48.364;11.378;2022-09-29T05:31:01;12.02;62.92
65324;SHT31;51937;48.364;11.378;2022-09-29T05:33:26;12.00;62.98
65324;SHT31;51937;48.364;11.378;2022-09-29T05:35:52;11.98;62.96
65324;SHT31;51937;48.364;11.378;2022-09-29T05:38:17;11.94;62.99
65324;SHT31;51937;48.364;11.378;2022-09-29T05:40:42;11.93;62.99
65324;SHT31;51937;48.364;11.378;2022-09-29T05:43:07;11.97;62.96
65324;SHT31;51937;48.364;11.378;2022-09-29T05:45:33;11.98;62.93
65324;SHT31;51937;48.364;11.378;2022-09-29T05:47:58;12.07;62.78
65324;SHT31;51937;48.364;11.378;2022-09-29T05:50:27;12.13;62.62
65324;SHT31;51937;48.364;11.378;2022-09-29T05:52:55;12.25;62.46
65324;SHT31;51937;48.364;11.378;2022-09-29T05:55:26;12.31;62.35
65324;SHT31;51937;48.364;11.378;2022-09-29T05:57:58;12.38;62.28
65324;SHT31;51937;48.364;11.378;2022-09-29T06:00:24;12.46;62.22
65324;SHT31;51937;48.364;11.378;2022-09-29T06:02:49;12.56;62.17
65324;SHT31;51937;48.364;11.378;2022-09-29T06:05:14;12.64;62.12
65324;SHT31;51937;48.364;11.378;2022-09-29T06:07:40;12.70;62.08
65324;SHT31;51937;48.364;11.378;2022-09-29T06:10:05;12.79;62.06
65324;SHT31;51937;48.364;11.378;2022-09-29T06:12:36;12.83;62.11
65324;SHT31;51937;48.364;11.378;2022-09-29T06:15:03;12.87;62.08
65324;SHT31;51937;48.364;11.378;2022-09-29T06:17:29;12.97;62.06
65324;SHT31;51937;48.364;11.378;2022-09-29T06:19:54;13.04;62.00
65324;SHT31;51937;48.364;11.378;2022-09-29T06:22:20;13.08;61.99
65324;SHT31;51937;48.364;11.378;2022-09-29T06:24:45;13.15;62.08
65324;SHT31;51937;48.364;11.378;2022-09-29T06:27:10;13.17;62.08
65324;SHT31;51937;48.364;11.378;2022-09-29T06:29:36;13.18;62.13
65324;SHT31;51937;48.364;11.378;2022-09-29T06:32:02;13.21;62.22
65324;SHT31;51937;48.364;11.378;2022-09-29T06:34:27;13.25;62.17
65324;SHT31;51937;48.364;11.378;2022-09-29T06:36:53;13.34;62.14
65324;SHT31;51937;48.364;11.378;2022-09-29T06:39:37;13.39;62.10
65324;SHT31;51937;48.364;11.378;2022-09-29T06:42:03;13.49;62.00
65324;SHT31;51937;48.364;11.378;2022-09-29T06:44:28;13.59;61.92
65324;SHT31;51937;48.364;11.378;2022-09-29T06:46:55;13.67;61.84
65324;SHT31;51937;48.364;11.378;2022-09-29T06:49:21;13.76;61.83
65324;SHT31;51937;48.364;11.378;2022-09-29T06:51:47;13.83;61.82
65324;SHT31;51937;48.364;11.378;2022-09-29T06:54:14;13.90;61.81
65324;SHT31;51937;48.364;11.378;2022-09-29T06:56:40;14.01;61.75
65324;SHT31;51937;48.364;11.378;2022-09-29T06:59:07;14.13;61.63
65324;SHT31;51937;48.364;11.378;2022-09-29T07:01:33;14.25;61.53
65324;SHT31;51937;48.364;11.378;2022-09-29T07:03:58;14.31;61.52
65324;SHT31;51937;48.364;11.378;2022-09-29T07:06:27;14.43;61.47
65324;SHT31;51937;48.364;11.378;2022-09-29T07:08:57;14.53;61.45
65324;SHT31;51937;48.364;11.378;2022-09-29T07:11:23;14.60;61.36
65324;SHT31;51937;48.364;11.378;2022-09-29T07:13:49;14.72;61.26
65324;SHT31;51937;48.364;11.378;2022-09-29T07:16:16;14.83;61.13
65324;SHT31;51937;48.364;11.378;2022-09-29T07:18:41;14.91;61.00
65324;SHT31;51937;48.364;11.378;2022-09-29T07:21:10;15.01;60.91
65324;SHT31;51937;48.364;11.378;2022-09-29T07:23:36;15.10;60.88
65324;SHT31;51937;48.364;11.378;2022-09-29T07:26:03;15.23;60.87
65324;SHT31;51937;48.364;11.378;2022-09-29T07:28:29;15.31;60.78
65324;SHT31;51937;48.364;11.378;2022-09-29T07:31:06;15.36;60.70
65324;SHT31;51937;48.364;11.378;2022-09-29T07:33:32;15.48;60.66
65324;SHT31;51937;48.364;11.378;2022-09-29T07:35:58;15.52;60.64
65324;SHT31;51937;48.364;11.378;2022-09-29T07:38:25;15.63;60.55
65324;SHT31;51937;48.364;11.378;2022-09-29T07:40:51;15.74;60.46
65324;SHT31;51937;48.364;11.378;2022-09-29T07:43:16;15.83;60.45
65324;SHT31;51937;48.364;11.378;2022-09-29T07:45:48;15.93;60.36
65324;SHT31;51937;48.364;11.378;2022-09-29T07:48:14;16.06;60.35
65324;SHT31;51937;48.364;11.378;2022-09-29T07:50:40;16.21;60.17
65324;SHT31;51937;48.364;11.378;2022-09-29T07:53:05;16.32;60.02
65324;SHT31;51937;48.364;11.378;2022-09-29T07:55:31;16.45;59.96
65324;SHT31;51937;48.364;11.378;2022-09-29T07:57:56;16.51;59.99
65324;SHT31;51937;48.364;11.378;2022-09-29T08:00:21;16.55;60.03
65324;SHT31;51937;48.364;11.378;2022-09-29T08:02:47;16.59;59.97
65324;SHT31;51937;48.364;11.378;2022-09-29T08:05:12;16.61;59.91
65324;SHT31;51937;48.364;11.378;2022-09-29T08:07:37;16.65;59.88
65324;SHT31;51937;48.364;11.378;2022-09-29T08:10:04;16.66;59.79
65324;SHT31;51937;48.364;11.378;2022-09-29T08:12:29;16.70;59.74
65324;SHT31;51937;48.364;11.378;2022-09-29T08:14:54;16.81;59.57
65324;SHT31;51937;48.364;11.378;2022-09-29T08:17:20;16.89;59.53
65324;SHT31;51937;48.364;11.378;2022-09-29T08:19:45;16.97;59.47
65324;SHT31;51937;48.364;11.378;2022-09-29T08:22:10;17.02;59.41
65324;SHT31;51937;48.364;11.378;2022-09-29T08:24:35;17.02;59.45
65324;SHT31;51937;48.364;11.378;2022-09-29T08:27:02;17.07;59.42
65324;SHT31;51937;48.364;11.378;2022-09-29T08:29:29;17.08;59.41
65324;SHT31;51937;48.364;11.378;2022-09-29T08:31:55;17.14;59.41
65324;SHT31;51937;48.364;11.378;2022-09-29T08:34:20;17.18;59.32
65324;SHT31;51937;48.364;11.378;2022-09-29T08:36:46;17.30;59.22
65324;SHT31;51937;48.364;11.378;2022-09-29T08:39:11;17.32;59.17
65324;SHT31;51937;48.364;11.378;2022-09-29T08:44:22;17.45;58.87
65324;SHT31;51937;48.364;11.378;2022-09-29T08:47:19;17.44;58.87
65324;SHT31;51937;48.364;11.378;2022-09-29T08:49:55;17.49;58.60
65324;SHT31;51937;48.364;11.378;2022-09-29T08:52:27;17.56;58.43
65324;SHT31;51937;48.364;11.378;2022-09-29T08:55:34;17.58;58.46
65324;SHT31;51937;48.364;11.378;2022-09-29T08:58:02;17.66;58.39
65324;SHT31;51937;48.364;11.378;2022-09-29T09:00:36;17.72;58.05
65324;SHT31;51937;48.364;11.378;2022-09-29T09:14:13;18.21;57.64
65324;SHT31;51937;48.364;11.378;2022-09-29T09:19:49;18.27;57.32
65324;SHT31;51937;48.364;11.378;2022-09-29T09:25:30;18.49;57.14
65324;SHT31;51937;48.364;11.378;2022-09-29T09:28:03;18.68;56.73
65324;SHT31;51937;48.364;11.378;2022-09-29T09:30:36;18.83;56.50
65324;SHT31;51937;48.364;11.378;2022-09-29T09:33:10;18.95;56.45
65324;SHT31;51937;48.364;11.378;2022-09-29T09:38:22;19.15;56.34
65324;SHT31;51937;48.364;11.378;2022-09-29T09:40:52;19.32;56.09
65324;SHT31;51937;48.364;11.378;2022-09-29T09:43:39;19.41;55.85
65324;SHT31;51937;48.364;11.378;2022-09-29T09:46:18;19.50;55.59
65324;SHT31;51937;48.364;11.378;2022-09-29T09:48:54;19.51;55.63
65324;SHT31;51937;48.364;11.378;2022-09-29T09:54:32;19.51;55.66
65324;SHT31;51937;48.364;11.378;2022-09-29T10:02:24;19.85;55.22
65324;SHT31;51937;48.364;11.378;2022-09-29T10:04:51;19.92;55.03
65324;SHT31;51937;48.364;11.378;2022-09-29T10:07:22;19.94;54.80
65324;SHT31;51937;48.364;11.378;2022-09-29T10:09:48;19.97;54.84
65324;SHT31;51937;48.364;11.378;2022-09-29T10:12:19;19.98;54.62
65324;SHT31;51937;48.364;11.378;2022-09-29T10:15:16;19.92;54.69
65324;SHT31;51937;48.364;11.378;2022-09-29T10:17:45;19.94;54.66
65324;SHT31;51937;48.364;11.378;2022-09-29T10:20:12;19.94;54.57
65324;SHT31;51937;48.364;11.378;2022-09-29T10:22:37;19.85;54.63
65324;SHT31;51937;48.364;11.378;2022-09-29T10:25:17;19.70;54.71
65324;SHT31;51937;48.364;11.378;2022-09-29T10:27:52;19.61;54.68
65324;SHT31;51937;48.364;11.378;2022-09-29T10:30:23;19.54;54.74
65324;SHT31;51937;48.364;11.378;2022-09-29T10:32:58;19.54;54.65
65324;SHT31;51937;48.364;11.378;2022-09-29T10:35:28;19.47;54.57
65324;SHT31;51937;48.364;11.378;2022-09-29T10:38:01;19.35;54.63
65324;SHT31;51937;48.364;11.378;2022-09-29T10:40:27;19.20;54.89
65324;SHT31;51937;48.364;11.378;2022-09-29T10:42:52;19.08;55.02
65324;SHT31;51937;48.364;11.378;2022-09-29T10:45:21;19.04;55.00
65324;SHT31;51937;48.364;11.378;2022-09-29T10:50:29;19.00;54.91
65324;SHT31;51937;48.364;11.378;2022-09-29T10:53:02;18.96;54.85
65324;SHT31;51937;48.364;11.378;2022-09-29T10:55:34;18.97;54.76
65324;SHT31;51937;48.364;11.378;2022-09-29T10:58:06;19.00;54.79
65324;SHT31;51937;48.364;11.378;2022-09-29T11:00:42;19.04;54.94
65324;SHT31;51937;48.364;11.378;2022-09-29T11:03:17;18.97;54.92
65324;SHT31;51937;48.364;11.378;2022-09-29T11:08:18;18.92;55.21
65324;SHT31;51937;48.364;11.378;2022-09-29T11:10:45;18.86;55.18
65324;SHT31;51937;48.364;11.378;2022-09-29T11:13:34;18.76;55.16
65324;SHT31;51937;48.364;11.378;2022-09-29T11:16:14;18.77;55.03
65324;SHT31;51937;48.364;11.378;2022-09-29T11:18:42;18.70;55.05
65324;SHT31;51937;48.364;11.378;2022-09-29T11:24:02;18.56;55.19
65324;SHT31;51937;48.364;11.378;2022-09-29T11:26:42;18.56;55.20
65324;SHT31;51937;48.364;11.378;2022-09-29T11:29:31;18.55;55.29
65324;SHT31;51937;48.364;11.378;2022-09-29T11:35:00;18.56;55.26
65324;SHT31;51937;48.364;11.378;2022-09-29T11:40:18;18.52;55.44
65324;SHT31;51937;48.364;11.378;2022-09-29T11:43:19;18.45;55.36
65324;SHT31;51937;48.364;11.378;2022-09-29T11:46:04;18.45;55.49
65324;SHT31;51937;48.364;11.378;2022-09-29T11:54:20;18.48;55.37
65324;SHT31;51937;48.364;11.378;2022-09-29T11:56:54;18.51;55.39
65324;SHT31;51937;48.364;11.378;2022-09-29T11:59:31;18.56;55.32
65324;SHT31;51937;48.364;11.378;2022-09-29T12:02:18;18.55;55.31
65324;SHT31;51937;48.364;11.378;2022-09-29T12:15:59;18.42;55.46
65324;SHT31;51937;48.364;11.378;2022-09-29T12:18:39;18.44;55.53
65324;SHT31;51937;48.364;11.378;2022-09-29T12:21:07;18.42;55.49
65324;SHT31;51937;48.364;11.378;2022-09-29T12:23:35;18.42;55.48
65324;SHT31;51937;48.364;11.378;2022-09-29T12:26:10;18.41;55.56
65324;SHT31;51937;48.364;11.378;2022-09-29T12:31:17;18.35;55.57
65324;SHT31;51937;48.364;11.378;2022-09-29T12:33:57;18.35;55.46
65324;SHT31;51937;48.364;11.378;2022-09-29T12:36:30;18.40;55.48
65324;SHT31;51937;48.364;11.378;2022-09-29T12:42:02;18.51;55.23
65324;SHT31;51937;48.364;11.378;2022-09-29T12:44:38;18.65;55.05
65324;SHT31;51937;48.364;11.378;2022-09-29T12:50:16;18.97;54.80
65324;SHT31;51937;48.364;11.378;2022-09-29T12:55:18;19.41;54.44
65324;SHT31;51937;48.364;11.378;2022-09-29T12:57:46;19.66;54.11
65324;SHT31;51937;48.364;11.378;2022-09-29T13:00:16;19.89;53.82
65324;SHT31;51937;48.364;11.378;2022-09-29T13:11:08;20.28;53.84
65324;SHT31;51937;48.364;11.378;2022-09-29T13:16:42;20.47;53.71
65324;SHT31;51937;48.364;11.378;2022-09-29T13:21:56;20.41;53.82
65324;SHT31;51937;48.364;11.378;2022-09-29T13:24:43;20.40;53.84
65324;SHT31;51937;48.364;11.378;2022-09-29T13:27:23;20.38;53.65
65324;SHT31;51937;48.364;11.378;2022-09-29T13:30:02;20.31;53.77
65324;SHT31;51937;48.364;11.378;2022-09-29T13:32:29;20.25;54.04
65324;SHT31;51937;48.364;11.378;2022-09-29T13:34:59;20.23;53.97
65324;SHT31;51937;48.364;11.378;2022-09-29T13:37:34;20.23;53.94
65324;SHT31;51937;48.364;11.378;2022-09-29T13:40:07;20.20;53.97
65324;SHT31;51937;48.364;11.378;2022-09-29T13:47:53;20.16;53.83
65324;SHT31;51937;48.364;11.378;2022-09-29T13:50:42;20.16;53.79
65324;SHT31;51937;48.364;11.378;2022-09-29T13:53:26;20.17;53.82
65324;SHT31;51937;48.364;11.378;2022-09-29T13:58:29;20.18;53.69
65324;SHT31;51937;48.364;11.378;2022-09-29T14:00:58;20.16;53.74
65324;SHT31;51937;48.364;11.378;2022-09-29T14:03:36;20.09;53.75
65324;SHT31;51937;48.364;11.378;2022-09-29T14:08:35;20.00;53.92
65324;SHT31;51937;48.364;11.378;2022-09-29T14:18:50;19.72;54.04
65324;SHT31;51937;48.364;11.378;2022-09-29T14:27:30;19.44;54.12
65324;SHT31;51937;48.364;11.378;2022-09-29T14:35:18;19.27;54.17
65324;SHT31;51937;48.364;11.378;2022-09-29T14:37:51;19.23;54.25
65324;SHT31;51937;48.364;11.378;2022-09-29T14:40:21;19.20;54.34
65324;SHT31;51937;48.364;11.378;2022-09-29T14:43:10;19.14;54.26
65324;SHT31;51937;48.364;11.378;2022-09-29T14:49:25;18.95;54.63
65324;SHT31;51937;48.364;11.378;2022-09-29T14:55:02;18.72;54.59
65324;SHT31;51937;48.364;11.378;2022-09-29T15:02:27;18.58;54.63
65324;SHT31;51937;48.364;11.378;2022-09-29T15:04:53;18.56;54.77
65324;SHT31;51937;48.364;11.378;2022-09-29T15:07:21;18.45;54.83
65324;SHT31;51937;48.364;11.378;2022-09-29T15:09:50;18.41;54.91
65324;SHT31;51937;48.364;11.378;2022-09-29T15:12:23;18.35;54.92
65324;SHT31;51937;48.364;11.378;2022-09-29T15:14:50;18.30;55.11
65324;SHT31;51937;48.364;11.378;2022-09-29T15:22:49;18.18;55.18
65324;SHT31;51937;48.364;11.378;2022-09-29T15:27:57;18.23;55.12
65324;SHT31;51937;48.364;11.378;2022-09-29T15:30:24;18.23;55.15
65324;SHT31;51937;48.364;11.378;2022-09-29T15:32:51;18.25;55.15
65324;SHT31;51937;48.364;11.378;2022-09-29T15:35:24;18.25;55.19
65324;SHT31;51937;48.364;11.378;2022-09-29T15:40:16;18.27;55.31
65324;SHT31;51937;48.364;11.378;2022-09-29T15:42:42;18.31;55.35
65324;SHT31;51937;48.364;11.378;2022-09-29T15:45:16;18.27;55.37
65324;SHT31;51937;48.364;11.378;2022-09-29T15:47:41;18.15;55.50
65324;SHT31;51937;48.364;11.378;2022-09-29T15:50:22;18.00;55.73
65324;SHT31;51937;48.364;11.378;2022-09-29T15:52:48;17.93;55.94
65324;SHT31;51937;48.364;11.378;2022-09-29T15:55:17;17.85;56.01
65324;SHT31;51937;48.364;11.378;2022-09-29T16:02:48;17.65;56.11
65324;SHT31;51937;48.364;11.378;2022-09-29T16:05:21;17.53;56.14
65324;SHT31;51937;48.364;11.378;2022-09-29T16:08:00;17.48;56.14
65324;SHT31;51937;48.364;11.378;2022-09-29T16:10:29;17.42;56.23
65324;SHT31;51937;48.364;11.378;2022-09-29T16:13:03;17.34;56.17
65324;SHT31;51937;48.364;11.378;2022-09-29T16:15:41;17.24;56.16
65324;SHT31;51937;48.364;11.378;2022-09-29T16:18:12;17.20;56.27
65324;SHT31;51937;48.364;11.378;2022-09-29T16:20:41;17.13;56.31
65324;SHT31;51937;48.364;11.378;2022-09-29T16:23:17;17.04;56.37
65324;SHT31;51937;48.364;11.378;2022-09-29T16:25:44;17.02;56.36
65324;SHT31;51937;48.364;11.378;2022-09-29T16:28:37;16.89;56.51
65324;SHT31;51937;48.364;11.378;2022-09-29T16:33:28;16.83;56.49
65324;SHT31;51937;48.364;11.378;2022-09-29T16:36:10;16.76;56.58
65324;SHT31;51937;48.364;11.378;2022-09-29T16:38:39;16.70;56.60
65324;SHT31;51937;48.364;11.378;2022-09-29T16:41:14;16.63;56.59
65324;SHT31;51937;48.364;11.378;2022-09-29T16:43:41;16.61;56.64
65324;SHT31;51937;48.364;11.378;2022-09-29T16:46:16;16.55;56.64
65324;SHT31;51937;48.364;11.378;2022-09-29T16:48:43;16.49;56.75
65324;SHT31;51937;48.364;11.378;2022-09-29T16:51:27;16.41;56.84
65324;SHT31;51937;48.364;11.378;2022-09-29T16:53:57;16.36;56.88
65324;SHT31;51937;48.364;11.378;2022-09-29T16:56:28;16.32;56.93
65324;SHT31;51937;48.364;11.378;2022-09-29T16:59:11;16.25;57.04
65324;SHT31;51937;48.364;11.378;2022-09-29T17:01:38;16.21;57.00
65324;SHT31;51937;48.364;11.378;2022-09-29T17:04:05;16.18;57.11
65324;SHT31;51937;48.364;11.378;2022-09-29T17:06:30;16.14;57.19
65324;SHT31;51937;48.364;11.378;2022-09-29T17:08:57;16.08;57.26
65324;SHT31;51937;48.364;11.378;2022-09-29T17:11:22;16.06;57.28
65324;SHT31;51937;48.364;11.378;2022-09-29T17:13:47;16.00;57.34
65324;SHT31;51937;48.364;11.378;2022-09-29T17:16:13;15.97;57.42
65324;SHT31;51937;48.364;11.378;2022-09-29T17:18:46;15.93;57.51
65324;SHT31;51937;48.364;11.378;2022-09-29T17:21:13;15.89;57.56
65324;SHT31;51937;48.364;11.378;2022-09-29T17:23:38;15.89;57.63
65324;SHT31;51937;48.364;11.378;2022-09-29T17:26:03;15.83;57.67
65324;SHT31;51937;48.364;11.378;2022-09-29T17:28:48;15.79;57.68
65324;SHT31;51937;48.364;11.378;2022-09-29T17:31:13;15.76;57.69
65324;SHT31;51937;48.364;11.378;2022-09-29T17:33:39;15.76;57.71
65324;SHT31;51937;48.364;11.378;2022-09-29T17:36:07;15.72;57.73
65324;SHT31;51937;48.364;11.378;2022-09-29T17:38:36;15.69;57.81
65324;SHT31;51937;48.364;11.378;2022-09-29T17:41:04;15.70;57.85
65324;SHT31;51937;48.364;11.378;2022-09-29T17:43:30;15.65;57.84
65324;SHT31;51937;48.364;11.378;2022-09-29T17:45:57;15.62;57.91
65324;SHT31;51937;48.364;11.378;2022-09-29T17:48:25;15.63;58.00
65324;SHT31;51937;48.364;11.378;2022-09-29T17:50:52;15.59;58.05
65324;SHT31;51937;48.364;11.378;2022-09-29T17:53:19;15.58;58.06
65324;SHT31;51937;48.364;11.378;2022-09-29T17:55:46;15.55;58.13
65324;SHT31;51937;48.364;11.378;2022-09-29T17:58:15;15.52;58.16
65324;SHT31;51937;48.364;11.378;2022-09-29T18:00:42;15.48;58.12
65324;SHT31;51937;48.364;11.378;2022-09-29T18:03:10;15.45;58.21
65324;SHT31;51937;48.364;11.378;2022-09-29T18:05:38;15.43;58.19
65324;SHT31;51937;48.364;11.378;2022-09-29T18:08:05;15.39;58.25
65324;SHT31;51937;48.364;11.378;2022-09-29T18:13:02;15.38;58.27
65324;SHT31;51937;48.364;11.378;2022-09-29T18:15:28;15.38;58.32
65324;SHT31;51937;48.364;11.378;2022-09-29T18:17:55;15.35;58.30
65324;SHT31;51937;48.364;11.378;2022-09-29T18:20:22;15.34;58.36
65324;SHT31;51937;48.364;11.378;2022-09-29T18:22:48;15.32;58.40
65324;SHT31;51937;48.364;11.378;2022-09-29T18:25:15;15.31;58.40
65324;SHT31;51937;48.364;11.378;2022-09-29T18:27:42;15.30;58.47
65324;SHT31;51937;48.364;11.378;2022-09-29T18:30:22;15.27;58.53